Great Bend, KS

7:34 PM CDT on October 23, 2017 (GMT -0500)
Great Bend Municipal

Weather History for KGBD - March, 2014

Change the Weather History Date:

Monday, March 31, 2014

  Actual Average Record
Temperature  
Mean Temperature 52 °F -  
Max Temperature 66 °F 63 °F 90 °F (1971)
Min Temperature 37 °F 37 °F 22 °F (1954)
Degree Days  
Heating Degree Days 12    
Growing Degree Days 2 (Base 50)    
Moisture  
Dew Point 27 °F    
Average Humidity 31    
Maximum Humidity 52    
Minimum Humidity 19    
Precipitation  
Precipitation 0.00 in - - ()
Sea Level Pressure  
Sea Level Pressure 29.73 in    
Wind  
Wind Speed 26 mph (West)    
Max Wind Speed 36 mph    
Max Gust Speed 45 mph    
Visibility 9 miles    
Events      
Averages and records for this station are not official NWS values.
T = Trace of Precipitation, MM = Missing Value Source: NWS Daily Summary

Daily Weather History Graph

Daily Weather History Graph

Search for Another Location

Airport or City:

Trip Planner

Search our weather history database for the weather conditions in past years. The results will help you decide how hot, cold, wet, or windy it might be!

Date:

Astronomy

Mar. 31, 2014 Rise Set
Actual Time 7:21 AM CDT 7:57 PM CDT
Civil Twilight 6:55 AM CDT 8:24 PM CDT
Nautical Twilight 6:23 AM CDT 8:55 PM CDT
Astronomical Twilight 5:51 AM CDT 9:28 PM CDT
Moon 7:47 AM CDT (3/31) 9:16 PM CDT (3/31)
Length of Visible Light 13h 29m
Length of Day
12h 35m
New Moon, 1% of the Moon is Illuminated
Mar 31
New Moon
Apr 7
First Quarter
Apr 15
Full
Apr 22
Last Quarter
Apr 29
New

Hourly Weather History & Observations

Time (CDT) Temp. Windchill Dew Point Humidity Pressure Visibility Wind Dir Wind Speed Gust Speed Precip Events Conditions
12:15 AM 64.4 °F - 30.2 °F 28% 29.58 in 10.0 mi South 35.7 mph 42.6 mph N/A   Clear
12:35 AM 64.4 °F - 32.0 °F 30% 29.58 in 10.0 mi South 31.1 mph 43.7 mph N/A   Clear
12:55 AM 62.6 °F - 32.0 °F 32% 29.57 in 10.0 mi South 33.4 mph 42.6 mph N/A   Clear
1:15 AM 62.6 °F - 33.8 °F 34% 29.56 in 10.0 mi South 32.2 mph 41.4 mph N/A   Clear
1:35 AM 62.6 °F - 33.8 °F 34% 29.56 in 10.0 mi South 32.2 mph 39.1 mph N/A   Clear
1:55 AM 62.6 °F - 33.8 °F 34% 29.56 in 10.0 mi South 32.2 mph 36.8 mph N/A   Clear
2:15 AM 60.8 °F - 33.8 °F 36% 29.54 in 10.0 mi South 28.8 mph 38.0 mph N/A   Clear
2:35 AM 60.8 °F - 33.8 °F 36% 29.54 in 10.0 mi South 29.9 mph 33.4 mph N/A   Clear
2:55 AM 62.6 °F - 33.8 °F 34% 29.53 in 10.0 mi South 29.9 mph 35.7 mph N/A   Clear
3:15 AM 62.6 °F - 35.6 °F 37% 29.52 in 10.0 mi South 29.9 mph 36.8 mph N/A   Clear
3:35 AM 62.6 °F - 35.6 °F 37% 29.52 in 10.0 mi South 26.5 mph 38.0 mph N/A   Clear
3:55 AM 62.6 °F - 35.6 °F 37% 29.51 in 10.0 mi South 28.8 mph 42.6 mph N/A   Clear
4:15 AM 62.6 °F - 35.6 °F 37% 29.51 in 10.0 mi South 29.9 mph 39.1 mph N/A   Clear
4:35 AM 62.6 °F - 37.4 °F 39% 29.51 in 10.0 mi SSW 26.5 mph 34.5 mph N/A   Clear
4:55 AM 62.6 °F - 37.4 °F 39% 29.50 in 10.0 mi South 29.9 mph 38.0 mph N/A   Clear
5:15 AM 62.6 °F - 37.4 °F 39% 29.52 in 10.0 mi SSW 27.6 mph 33.4 mph N/A   Clear
5:35 AM 60.8 °F - 37.4 °F 42% 29.55 in 10.0 mi SSW 23.0 mph 33.4 mph N/A   Scattered Clouds
5:55 AM 60.8 °F - 35.6 °F 39% 29.56 in 10.0 mi SSW 17.3 mph 31.1 mph N/A   Overcast
6:15 AM 60.8 °F - 35.6 °F 39% 29.56 in 10.0 mi SW 17.3 mph 24.2 mph N/A   Overcast
6:35 AM 60.8 °F - 35.6 °F 39% 29.57 in 10.0 mi SW 16.1 mph 20.7 mph N/A   Overcast
6:55 AM 60.8 °F - 35.6 °F 39% 29.58 in 10.0 mi SW 15.0 mph 19.6 mph N/A   Overcast
7:15 AM 60.8 °F - 33.8 °F 36% 29.58 in 9.0 mi SSW 15.0 mph - N/A   Overcast
7:35 AM 59.0 °F - 33.8 °F 39% 29.59 in 7.0 mi SSW 12.7 mph - N/A   Mostly Cloudy
7:55 AM 57.2 °F - 32.0 °F 38% 29.60 in 6.0 mi SW 12.7 mph 17.3 mph N/A   Partly Cloudy
8:15 AM 57.2 °F - 32.0 °F 38% 29.61 in 5.0 mi SSW 11.5 mph - N/A   Clear
8:35 AM 60.8 °F - 28.4 °F 29% 29.61 in 5.0 mi SW 15.0 mph - N/A   Clear
8:55 AM 62.6 °F - 28.4 °F 27% 29.62 in 4.0 mi WSW 16.1 mph 21.9 mph N/A   Clear
9:15 AM 62.6 °F - 21.2 °F 20% 29.63 in 5.0 mi West 20.7 mph 27.6 mph N/A   Clear
9:35 AM 62.6 °F - 19.4 °F 19% 29.64 in 7.0 mi West 25.3 mph 32.2 mph N/A   Clear
9:55 AM 62.6 °F - 19.4 °F 19% 29.65 in 10.0 mi West 20.7 mph 25.3 mph N/A   Clear
10:15 AM 62.6 °F - 19.4 °F 19% 29.66 in 10.0 mi WNW 27.6 mph 31.1 mph N/A   Clear
10:35 AM 64.4 °F - 24.8 °F 22% 29.68 in 10.0 mi WNW 27.6 mph 36.8 mph N/A   Clear
10:55 AM 64.4 °F - 28.4 °F 26% 29.70 in 5.0 mi WNW 31.1 mph 44.9 mph N/A   Scattered Clouds
11:15 AM 62.6 °F - 30.2 °F 30% 29.71 in 5.0 mi NW 28.8 mph 40.3 mph N/A   Overcast
11:35 AM 64.4 °F - 30.2 °F 28% 29.72 in 9.0 mi NW 29.9 mph 38.0 mph N/A   Mostly Cloudy
11:55 AM 64.4 °F - 30.2 °F 28% 29.72 in 7.0 mi WNW 34.5 mph 42.6 mph N/A   Partly Cloudy
12:15 PM 64.4 °F - 30.2 °F 28% 29.73 in 9.0 mi NW 27.6 mph 35.7 mph N/A   Clear
12:35 PM 64.4 °F - 28.4 °F 26% 29.74 in 7.0 mi NW 28.8 mph 38.0 mph N/A   Mostly Cloudy
12:55 PM 64.4 °F - 26.6 °F 24% 29.75 in 5.0 mi NW 27.6 mph 34.5 mph N/A   Overcast
1:15 PM 64.4 °F - 26.6 °F 24% 29.76 in 5.0 mi NW 28.8 mph 39.1 mph N/A   Overcast
1:35 PM 64.4 °F - 24.8 °F 22% 29.77 in 5.0 mi NW 27.6 mph 35.7 mph N/A   Overcast
1:55 PM 64.4 °F - 24.8 °F 22% 29.77 in 6.0 mi WNW 26.5 mph 40.3 mph N/A   Overcast
2:15 PM 64.4 °F - 24.8 °F 22% 29.77 in 5.0 mi WNW 28.8 mph 36.8 mph N/A   Overcast
2:35 PM 64.4 °F - 24.8 °F 22% 29.77 in 5.0 mi WNW 29.9 mph 39.1 mph N/A   Overcast
2:55 PM 64.4 °F - 24.8 °F 22% 29.78 in 4.0 mi NW 29.9 mph 39.1 mph N/A   Overcast
3:15 PM 64.4 °F - 24.8 °F 22% 29.78 in 5.0 mi NW 27.6 mph 34.5 mph N/A   Overcast
3:35 PM 64.4 °F - 23.0 °F 21% 29.79 in 7.0 mi NW 24.2 mph 34.5 mph N/A   Mostly Cloudy
3:55 PM 64.4 °F - 23.0 °F 21% 29.79 in 10.0 mi NW 28.8 mph 38.0 mph N/A   Scattered Clouds
4:15 PM 66.2 °F - 23.0 °F 19% 29.80 in 10.0 mi WNW 28.8 mph 41.4 mph N/A   Clear
4:35 PM 66.2 °F - 23.0 °F 19% 29.81 in 10.0 mi WNW 29.9 mph 36.8 mph N/A   Clear
4:55 PM 66.2 °F - 23.0 °F 19% 29.81 in 10.0 mi NW 23.0 mph 36.8 mph N/A   Clear
5:15 PM 66.2 °F - 23.0 °F 19% 29.82 in 10.0 mi WNW 21.9 mph 31.1 mph N/A   Clear
5:35 PM 64.4 °F - 21.2 °F 19% 29.82 in 10.0 mi NW 23.0 mph 31.1 mph N/A   Clear
5:55 PM 64.4 °F - 23.0 °F 21% 29.83 in 9.0 mi NNW 19.6 mph 32.2 mph N/A   Clear
6:15 PM 60.8 °F - 23.0 °F 23% 29.86 in 7.0 mi NNW 25.3 mph 32.2 mph N/A   Mostly Cloudy
6:35 PM 59.0 °F - 23.0 °F 25% 29.88 in 8.0 mi NNW 20.7 mph 28.8 mph N/A   Scattered Clouds
6:55 PM 57.2 °F - 23.0 °F 27% 29.90 in 8.0 mi NNW 20.7 mph 27.6 mph N/A   Partly Cloudy
7:15 PM 55.4 °F - 23.0 °F 29% 29.92 in 10.0 mi NNW 21.9 mph 31.1 mph N/A   Clear
7:35 PM 55.4 °F - 23.0 °F 29% 29.93 in 10.0 mi NNW 19.6 mph 27.6 mph N/A   Clear
7:55 PM 53.6 °F - 23.0 °F 30% 29.94 in 10.0 mi NNW 19.6 mph 28.8 mph N/A   Clear
8:15 PM 51.8 °F - 23.0 °F 33% 29.95 in 10.0 mi NNW 18.4 mph - N/A   Clear
8:35 PM 51.8 °F - 21.2 °F 30% 29.96 in 10.0 mi NNW 18.4 mph - N/A   Clear
8:55 PM 48.2 °F - 21.2 °F 34% 29.97 in 10.0 mi NNW 21.9 mph 25.3 mph N/A   Clear
9:15 PM 48.2 °F - 21.2 °F 34% 30.00 in 10.0 mi NNW 17.3 mph - N/A   Clear
9:35 PM 46.4 °F 39.5 °F 21.2 °F 37% 30.01 in 10.0 mi NNW 17.3 mph 24.2 mph N/A   Clear
9:55 PM 44.6 °F 36.9 °F 21.2 °F 39% 30.02 in 10.0 mi North 18.4 mph 24.2 mph N/A   Clear
10:15 PM 44.6 °F 36.1 °F 21.2 °F 39% 30.03 in 10.0 mi North 21.9 mph - N/A   Clear
10:35 PM 42.8 °F 35.1 °F 21.2 °F 42% 30.04 in 10.0 mi North 16.1 mph 21.9 mph N/A   Clear
10:55 PM 41.0 °F 33.9 °F 21.2 °F 45% 30.05 in 10.0 mi North 12.7 mph - N/A   Clear
11:15 PM 39.2 °F 31.2 °F 21.2 °F 49% 30.05 in 10.0 mi North 13.8 mph - N/A   Clear
11:35 PM 39.2 °F 32.5 °F 21.2 °F 49% 30.06 in 10.0 mi North 10.4 mph - N/A   Clear
11:55 PM 37.4 °F 29.3 °F 21.2 °F 52% 30.06 in 10.0 mi North 12.7 mph - N/A   Clear